Flight Track Log - Related Links

Times and Time Zones

All times are in EDT time to prevent confusion due to time zone crossing. See the SWA920 flight status page for this flight to view local times or setup timezone preferences in your user account.

Time Position Orientation Groundspeed Altitude Reporting Facility
EDT Latitude Longitude Course Direction KTS MPH feet Rate Location/Type
Sun 12:47:42 PM 42.9500 -71.4333 328° Northwest 140 161 1,200  Level KA90
Sun 12:48:51 PM 42.9922 -71.4692 328° Northwest 211 243 4,100 3,163 Climbing Boston Center
Sun 12:49:51 PM 43.0489 -71.5111 332° Northwest 211 243 8,000 3,100 Climbing Boston Center
Sun 12:50:51 PM 43.0747 -71.5931 293° West 229 264 10,300 2,200 Climbing Boston Center
Sun 12:51:51 PM 43.0756 -71.7181 271° West 298 343 12,400 2,500 Climbing Boston Center
Sun 12:52:51 PM 43.0700 -71.8433 267° West 342 394 15,300 3,050 Climbing Boston Center
Sun 12:53:51 PM 43.0644 -71.9911 267° West 361 415 18,500 2,850 Climbing Boston Center
Sun 12:54:51 PM 43.0586 -72.1161 266° West 369 425 21,000 2,500 Climbing Boston Center
Sun 12:55:51 PM 43.0525 -72.2583 267° West 369 425 23,500 2,350 Climbing Boston Center
Sun 12:56:51 PM 43.0486 -72.4117 268° West 369 425 25,700 2,100 Climbing Boston Center
Sun 12:57:51 PM 43.0422 -72.5594 267° West 380 437 27,700 2,250 Climbing Boston Center
Sun 12:58:51 PM 43.0275 -72.7042 262° West 390 449 30,200 2,050 Climbing Boston Center
Sun 12:59:51 PM 43.0208 -72.8461 266° West 385 443 31,800 1,350 Climbing Boston Center
Sun 01:00:51 PM 43.0139 -72.9881 266° West 385 443 32,900 1,100 Climbing Boston Center
Sun 01:01:51 PM 43.0111 -73.0961 268° West 391 450 34,000 1,400 Climbing Boston Center
Sun 01:02:51 PM 43.0017 -73.2719 266° West 391 450 35,700 1,500 Climbing Boston Center
Sun 01:03:51 PM 42.9983 -73.4308 268° West 386 444 37,000 1,100 Climbing Boston Center
Sun 01:04:51 PM 43.0075 -73.5814 275° West 386 444 37,900 500 Climbing Boston Center
Sun 01:05:51 PM 43.0183 -73.7322 276° West 392 451 38,000 50 Climbing Boston Center
Sun 01:06:51 PM 43.0289 -73.8831 276° West 392 451 38,000  Level Boston Center
Sun 01:07:51 PM 43.0394 -74.0308 276° West 398 458 38,000  Level Boston Center
Sun 01:08:51 PM 43.0497 -74.1847 275° West 404 465 38,000  Level Boston Center
Sun 01:09:51 PM 43.0600 -74.3328 275° West 404 465 38,000  Level Boston Center
Sun 01:10:51 PM 43.0697 -74.4864 275° West 404 465 38,000  Level Boston Center
Sun 01:11:51 PM 43.0775 -74.6375 274° West 404 465 38,000  Level Boston Center
Sun 01:12:51 PM 43.0889 -74.7914 276° West 404 465 38,000  Level Boston Center
Sun 01:13:51 PM 43.0961 -74.9394 274° West 404 465 38,000  Level Boston Center
Sun 01:14:51 PM 43.1053 -75.0933 275° West 404 465 38,000  Level Boston Center
Sun 01:15:51 PM 43.1125 -75.2275 274° West 404 465 38,000  Level Boston Center
Sun 01:16:51 PM 43.1189 -75.3814 273° West 409 471 38,000  Level Boston Center
Sun 01:17:51 PM 43.1275 -75.5328 275° West 409 471 38,000  Level Boston Center
Sun 01:18:51 PM 43.1358 -75.6839 274° West 409 471 38,000  Level Boston Center
Sun 01:21:16 PM 43.1528 -76.0436 274° West 399 459 38,000  Level Cleveland Center
Sun 01:22:16 PM 43.1567 -76.1969 272° West 404 465 38,000  Level Cleveland Center
Sun 01:23:16 PM 43.1200 -76.3333 250° West 393 452 38,000  Level Cleveland Center
Sun 01:24:16 PM 43.0769 -76.4728 247° West 387 445 38,000  Level Cleveland Center
Sun 01:25:16 PM 43.0339 -76.6064 246° West 392 451 38,000  Level Cleveland Center
Sun 01:26:16 PM 42.9903 -76.7397 246° West 392 451 38,000  Level Cleveland Center
Sun 01:27:16 PM 42.9447 -76.8789 246° West 392 451 38,000  Level Cleveland Center
Sun 01:28:16 PM 42.9031 -77.0117 247° West 392 451 38,000  Level Cleveland Center
Sun 01:29:16 PM 42.8572 -77.1475 245° Southwest 392 451 38,000  Level Cleveland Center
Sun 01:30:16 PM 42.8133 -77.2828 246° West 392 451 38,000  Level Cleveland Center
Sun 01:31:16 PM 42.7692 -77.4181 246° West 387 445 38,000  Level Cleveland Center
Sun 01:32:16 PM 42.7247 -77.5533 246° West 387 445 38,000  Level Cleveland Center
Sun 01:33:16 PM 42.7036 -77.6983 259° West 387 445 38,000  Level Cleveland Center
Sun 01:34:16 PM 42.6781 -77.8578 258° West 392 451 38,000  Level Cleveland Center
Sun 01:35:16 PM 42.6525 -78.0058 257° West 397 457 38,000  Level Cleveland Center
Sun 01:36:16 PM 42.6286 -78.1536 258° West 397 457 38,000  Level Cleveland Center
Sun 01:37:16 PM 42.6044 -78.2956 257° West 397 457 38,000  Level Cleveland Center
Sun 01:38:16 PM 42.5819 -78.4400 258° West 397 457 38,000  Level Cleveland Center
Sun 01:39:16 PM 42.5556 -78.5875 256° West 397 457 38,000  Level Cleveland Center
Sun 01:40:16 PM 42.5308 -78.7319 257° West 397 457 38,000  Level Cleveland Center
Sun 01:41:16 PM 42.5081 -78.8764 258° West 397 457 38,000  Level Cleveland Center
Sun 01:42:16 PM 42.4831 -79.0178 257° West 397 457 38,000  Level Cleveland Center
Sun 01:43:16 PM 42.4556 -79.1647 256° West 397 457 38,000  Level Cleveland Center
Sun 01:44:16 PM 42.4322 -79.3089 258° West 397 457 38,000  Level Cleveland Center
Sun 01:45:16 PM 42.4047 -79.4556 256° West 397 457 38,000  Level Cleveland Center
Sun 01:46:16 PM 42.3789 -79.6022 257° West 397 457 38,000  Level Cleveland Center
Sun 01:47:16 PM 42.3531 -79.7486 257° West 397 457 38,000  Level Cleveland Center
Sun 01:48:16 PM 42.3269 -79.8950 256° West 397 457 38,000  Level Cleveland Center
Sun 01:49:16 PM 42.2964 -80.0414 254° West 402 463 38,000  Level Cleveland Center
Sun 01:50:16 PM 42.2700 -80.1903 257° West 402 463 38,000  Level Cleveland Center
Sun 01:51:16 PM 42.2472 -80.3194 257° West 402 463 38,000  Level Cleveland Center
Sun 01:52:16 PM 42.2183 -80.4656 255° West 402 463 38,000  Level Cleveland Center
Sun 01:53:16 PM 42.1933 -80.6139 257° West 397 457 38,000  Level Cleveland Center
Sun 01:54:16 PM 42.1642 -80.7569 255° West 402 463 38,000  Level Cleveland Center
Sun 01:55:16 PM 42.1367 -80.9053 256° West 397 457 38,000  Level Cleveland Center
Sun 01:56:16 PM 42.1092 -81.0533 256° West 404 465 38,000  Level Cleveland Center
Sun 01:57:16 PM 42.0792 -81.1986 254° West 404 465 38,000  Level Cleveland Center
Sun 01:58:16 PM 42.0469 -81.3606 255° West 404 465 38,000  Level Cleveland Center
Sun 01:59:16 PM 42.0189 -81.5028 255° West 404 465 38,000  Level Cleveland Center
Sun 02:00:16 PM 41.9906 -81.6503 256° West 404 465 38,000  Level Cleveland Center
Sun 02:01:16 PM 41.9619 -81.7978 255° West 404 465 38,000  Level Cleveland Center
Sun 02:02:16 PM 41.9311 -81.9425 254° West 411 473 38,000  Level Cleveland Center
Sun 02:03:16 PM 41.9022 -82.0869 255° West 411 473 38,000  Level Cleveland Center
Sun 02:04:16 PM 41.8733 -82.2172 253° West 411 473 38,000  Level Cleveland Center
Sun 02:05:16 PM 41.8419 -82.3586 253° West 411 473 38,000  Level Cleveland Center
Sun 02:06:16 PM 41.8125 -82.5028 255° West 411 473 38,000  Level Cleveland Center
Sun 02:07:16 PM 41.7828 -82.6633 256° West 411 473 38,000  Level Cleveland Center
Sun 02:08:16 PM 41.7508 -82.8042 253° West 411 473 38,000  Level Cleveland Center
Sun 02:09:16 PM 41.7208 -82.9506 255° West 411 473 38,000  Level Cleveland Center
Sun 02:10:16 PM 41.6886 -83.0942 253° West 411 473 38,000  Level Cleveland Center
Sun 02:11:16 PM 41.6603 -83.2375 255° West 411 473 38,000 -250 Level Cleveland Center
Sun 02:12:16 PM 41.6381 -83.3867 259° West 411 473 37,500 -750 Descending Cleveland Center
Sun 02:13:16 PM 41.6197 -83.5358 261° West 411 473 36,500 -950 Descending Cleveland Center
Sun 02:14:16 PM 41.6011 -83.6822 260° West 411 473 35,600 -950 Descending Cleveland Center
Sun 02:15:16 PM 41.5825 -83.8283 260° West 411 473 34,600 -950 Descending Cleveland Center
Sun 02:16:16 PM 41.5636 -83.9803 261° West 411 473 33,700 -950 Descending Cleveland Center
Sun 02:17:16 PM 41.5444 -84.1289 260° West 411 473 32,700 -950 Descending Cleveland Center
Sun 02:18:16 PM 41.5319 -84.2617 263° West 406 467 31,800 -918 Descending Cleveland Center
Sun 02:20:06 PM 41.4958 -84.5353 260° West 417 480 30,100 -628 Descending Chicago Center
Sun 02:21:08 PM 41.4808 -84.6883 263° West 417 480 30,000 -48 Descending Chicago Center
Sun 02:22:10 PM 41.4897 -84.8742 274° West 417 480 30,000  Level Chicago Center
Sun 02:23:12 PM 41.4944 -85.0286 272° West 417 480 30,000 -629 Level Chicago Center
Sun 02:24:14 PM 41.5000 -85.1833 273° West 418 481 28,700 -1,839 Descending Chicago Center
Sun 02:25:16 PM 41.5036 -85.3317 272° West 404 465 26,200 -2,274 Descending Chicago Center
Sun 02:26:18 PM 41.5089 -85.4850 273° West 401 461 24,000 -1,210 Descending Chicago Center
Sun 02:27:20 PM 41.5142 -85.6342 273° West 397 457 23,700 -1,016 Descending Chicago Center
Sun 02:28:22 PM 41.5178 -85.7869 272° West 406 467 21,900 -1,935 Descending Chicago Center
Sun 02:29:24 PM 41.5225 -85.9314 273° West 390 449 19,700 -2,081 Descending Chicago Center
Sun 02:30:26 PM 41.5244 -86.0678 271° West 369 425 17,600 -2,710 Descending Chicago Center
Sun 02:31:28 PM 41.5242 -86.2303 270° West 365 420 14,100 -2,952 Descending Chicago Center
Sun 02:32:30 PM 41.5233 -86.3625 270° West 357 411 11,500 -1,839 Descending Chicago Center
Sun 02:33:32 PM 41.5217 -86.4892 269° West 345 397 10,300 -677 Descending Chicago Center
Sun 02:34:34 PM 41.5206 -86.6189 269° West 349 402 10,100 -97 Descending Chicago Center
Sun 02:35:36 PM 41.5194 -86.7614 269° West 350 403 10,100 -48 Level Chicago Center
Sun 02:36:38 PM 41.5194 -86.8703 270° West 295 339 10,000 -677 Descending Chicago Center
Sun 02:37:40 PM 41.5178 -86.9700 269° West 273 314 8,700 -1,355 Descending Chicago Center
Sun 02:38:42 PM 41.5167 -87.0669 269° West 265 305 7,200 -1,394 Descending Chicago Center
Sun 02:39:19 PM 41.5167 -87.1333 270° West 261 300 6,400 -928 Descending Chicago TRACON
Sun 02:40:19 PM 41.5333 -87.2333 283° West 264 304 5,700 -850 Descending Chicago TRACON
Sun 02:41:19 PM 41.5500 -87.3333 283° West 266 306 4,700 -850 Descending Chicago TRACON
Sun 02:42:19 PM 41.5500 -87.4333 270° West 268 308 4,000 -462 Descending Chicago TRACON
Sun 02:42:50 PM 41.5592 -87.4714 288° West 264 304 4,000  Level Chicago Center
Sun 02:43:52 PM 41.5714 -87.5675 280° West 265 305 4,000  Level Chicago Center
Sun 02:44:54 PM 41.5858 -87.6817 280° West 264 304 4,000 -290 Level Chicago Center
Sun 02:45:56 PM 41.5975 -87.7658 281° West 248 285 3,400 -672 Descending Chicago Center
Sun 02:46:59 PM 41.6111 -87.8469 283° West 235 270 2,600 -643 Descending Chicago Center
Sun 02:47:20 PM 41.6333 -87.8667 326° Northwest 211 243 2,500 -97 Descending Chicago TRACON
Sun 02:48:01 PM 41.6517 -87.8811 330° Northwest 208 239 2,500  Level Chicago Center
Sun 02:49:03 PM 41.6983 -87.8625 17° North 193 222 2,500 -152 Level Chicago Center
Sun 02:49:20 PM 41.7167 -87.8333 50° Northeast 175 201 2,300 -545 Descending Chicago TRACON
Sun 02:50:20 PM 41.7667 -87.8167 14° North 181 208 1,800 -450 Descending Chicago TRACON
Sun 02:51:20 PM 41.8000 -87.8000 20° North 145 167 1,400 -400 Descending Chicago TRACON

Login

Don't have an account? Register now (free) for customized features, flight alerts, and more!